createdAt,value
2018-12-31T00:03:31.156Z,100.00
2018-12-31T00:14:22.158Z,100.00
2018-12-31T00:19:40.626Z,100.00
2018-12-31T00:24:59.111Z,100.00
2018-12-31T00:30:17.583Z,100.00
2018-12-31T00:35:36.071Z,100.00
2018-12-31T00:40:54.670Z,100.00
2018-12-31T00:46:13.155Z,100.00
2018-12-31T00:51:31.622Z,100.00
2018-12-31T00:56:50.161Z,100.00
2018-12-31T01:07:39.092Z,100.00
2018-12-31T01:12:57.556Z,100.00
2018-12-31T01:18:16.100Z,100.00
2018-12-31T01:23:34.579Z,100.00
2018-12-31T01:28:53.203Z,100.00
2018-12-31T01:34:11.684Z,100.00
2018-12-31T01:39:30.163Z,100.00
2018-12-31T01:44:48.701Z,99.96
2018-12-31T01:55:37.703Z,99.93
2018-12-31T02:00:56.185Z,100.00
2018-12-31T02:11:47.192Z,100.00
2018-12-31T02:17:05.822Z,100.00
2018-12-31T02:22:24.662Z,100.00
2018-12-31T02:27:43.131Z,100.00
2018-12-31T02:33:01.605Z,100.00
2018-12-31T02:38:20.073Z,100.00
2018-12-31T02:43:38.554Z,99.92
2018-12-31T02:48:57.017Z,99.60
2018-12-31T02:59:46.243Z,99.29
2018-12-31T03:05:45.712Z,99.58
2018-12-31T03:11:04.261Z,99.89
2018-12-31T03:16:22.901Z,99.90
2018-12-31T03:21:41.345Z,99.81
2018-12-31T03:26:59.889Z,99.57
2018-12-31T03:32:18.378Z,99.76
2018-12-31T03:37:36.834Z,99.91
2018-12-31T03:42:55.370Z,100.00
2018-12-31T03:48:13.920Z,99.93
2018-12-31T03:53:32.397Z,99.75
2018-12-31T04:04:23.255Z,99.92
2018-12-31T04:10:01.347Z,100.00
2018-12-31T04:15:19.961Z,100.00
2018-12-31T04:20:38.506Z,100.00
2018-12-31T04:25:56.983Z,100.00
2018-12-31T04:31:15.459Z,100.00
2018-12-31T04:36:33.939Z,100.00
2018-12-31T04:41:52.490Z,100.00
2018-12-31T04:47:11.033Z,100.00
2018-12-31T04:52:29.875Z,100.00
2018-12-31T04:57:48.660Z,100.00
2018-12-31T05:03:26.475Z,100.00
2018-12-31T05:08:44.952Z,100.00
2018-12-31T05:14:03.410Z,100.00
2018-12-31T05:19:21.885Z,100.00
2018-12-31T05:24:40.350Z,100.00
2018-12-31T05:29:58.824Z,100.00
2018-12-31T05:35:37.076Z,100.00
2018-12-31T05:40:55.554Z,100.00
2018-12-31T05:46:14.037Z,100.00
2018-12-31T05:51:32.663Z,100.00
2018-12-31T05:56:51.213Z,100.00
2018-12-31T06:02:09.759Z,100.00
2018-12-31T06:07:28.239Z,100.00
2018-12-31T06:12:46.722Z,100.00
2018-12-31T06:18:05.202Z,100.00
2018-12-31T06:23:23.691Z,100.00
2018-12-31T06:34:15.089Z,100.00
2018-12-31T06:39:33.563Z,100.00
2018-12-31T06:44:52.049Z,100.00
2018-12-31T06:50:10.516Z,100.00
2018-12-31T06:55:28.987Z,100.00
2018-12-31T07:00:47.468Z,100.00
2018-12-31T07:06:05.944Z,100.00
2018-12-31T07:11:24.418Z,100.00
2018-12-31T07:16:42.888Z,100.00
2018-12-31T07:22:01.366Z,100.00
2018-12-31T07:27:19.845Z,100.00
2018-12-31T07:32:38.412Z,100.00
2018-12-31T07:37:56.950Z,100.00
2018-12-31T07:43:15.433Z,100.00
2018-12-31T07:48:33.920Z,100.00
2018-12-31T07:53:52.461Z,100.00
2018-12-31T07:59:10.932Z,100.00
2018-12-31T08:04:29.481Z,100.00
2018-12-31T08:09:48.113Z,100.00
2018-12-31T08:15:46.944Z,100.00
2018-12-31T08:21:05.494Z,100.00
2018-12-31T08:26:24.258Z,100.00
2018-12-31T08:31:42.741Z,100.00
2018-12-31T08:37:01.252Z,100.00
2018-12-31T08:42:19.794Z,100.00
2018-12-31T08:47:38.275Z,100.00
2018-12-31T08:52:56.746Z,100.00
2018-12-31T08:58:15.223Z,100.00
2018-12-31T09:03:33.712Z,100.00
2018-12-31T09:08:52.281Z,100.00
2018-12-31T09:14:10.868Z,100.00
2018-12-31T09:19:29.336Z,100.00
2018-12-31T09:24:47.886Z,100.00
2018-12-31T09:30:06.497Z,100.00
2018-12-31T09:35:25.402Z,100.00
2018-12-31T09:40:43.852Z,100.00
2018-12-31T09:46:02.397Z,100.00
2018-12-31T09:51:20.862Z,100.00
2018-12-31T09:56:39.337Z,100.00
2018-12-31T10:01:57.797Z,99.75
2018-12-31T10:07:16.766Z,99.42
2018-12-31T10:12:35.239Z,99.59
2018-12-31T10:23:50.871Z,100.00
2018-12-31T10:29:09.355Z,100.00
2018-12-31T10:34:29.727Z,100.00
2018-12-31T10:39:48.236Z,100.00
2018-12-31T10:45:26.064Z,99.70
2018-12-31T10:50:44.605Z,99.70
2018-12-31T10:56:03.076Z,100.00
2018-12-31T11:01:21.555Z,99.78
2018-12-31T11:06:40.103Z,99.61
2018-12-31T11:11:58.587Z,99.64
2018-12-31T11:17:17.579Z,99.51
2018-12-31T11:22:36.058Z,99.57
2018-12-31T11:27:54.526Z,99.42
2018-12-31T11:33:32.340Z,98.97
2018-12-31T11:38:50.812Z,98.87
2018-12-31T11:44:09.291Z,98.93
2018-12-31T11:49:27.758Z,99.13
2018-12-31T11:54:46.494Z,99.07
2018-12-31T12:00:44.867Z,98.91
2018-12-31T12:06:03.340Z,98.92
2018-12-31T12:11:21.885Z,98.86
2018-12-31T12:16:40.428Z,98.54
2018-12-31T12:22:00.634Z,98.41
2018-12-31T12:27:19.178Z,98.18
2018-12-31T12:32:37.661Z,97.99
2018-12-31T12:37:56.125Z,97.90
2018-12-31T12:43:14.600Z,97.67
2018-12-31T12:48:33.081Z,97.62
2018-12-31T12:53:51.699Z,97.42
2018-12-31T12:59:12.141Z,97.01
2018-12-31T13:04:30.613Z,96.90
2018-12-31T13:09:49.167Z,97.12
2018-12-31T13:15:07.709Z,96.98
2018-12-31T13:20:26.248Z,96.92
2018-12-31T13:25:44.795Z,96.41
2018-12-31T13:31:03.381Z,96.38
2018-12-31T13:36:25.191Z,96.28
2018-12-31T13:41:43.775Z,96.37
2018-12-31T13:52:32.771Z,94.42
2018-12-31T13:57:53.028Z,94.15
2018-12-31T14:03:17.235Z,94.96
2018-12-31T14:08:32.070Z,95.16
2018-12-31T14:14:04.402Z,95.64
2018-12-31T14:19:22.893Z,95.69
2018-12-31T14:25:02.549Z,95.50
2018-12-31T14:30:21.026Z,95.50
2018-12-31T14:35:45.706Z,95.53
2018-12-31T14:40:59.765Z,95.13
2018-12-31T14:46:20.053Z,95.27
2018-12-31T14:51:38.534Z,95.35
2018-12-31T14:56:57.004Z,95.65
2018-12-31T15:02:15.566Z,95.86
2018-12-31T15:07:34.184Z,95.65
2018-12-31T15:12:52.663Z,95.88
2018-12-31T15:18:11.359Z,95.68
2018-12-31T15:23:29.947Z,95.57
2018-12-31T15:28:48.612Z,95.76
2018-12-31T15:34:26.498Z,95.74
2018-12-31T15:39:44.991Z,95.96
2018-12-31T15:45:45.697Z,95.67
2018-12-31T15:51:04.234Z,95.77
2018-12-31T15:56:22.893Z,95.72
2018-12-31T16:01:41.437Z,95.65
2018-12-31T16:12:32.423Z,95.98
2018-12-31T16:17:52.623Z,95.99
2018-12-31T16:23:11.164Z,95.61
2018-12-31T16:28:29.759Z,95.72
2018-12-31T16:33:48.233Z,95.67
2018-12-31T16:39:46.605Z,95.63
2018-12-31T16:45:45.794Z,95.39
2018-12-31T16:51:04.450Z,95.94
2018-12-31T16:56:23.231Z,95.99
2018-12-31T17:01:41.709Z,95.66
2018-12-31T17:07:00.255Z,95.77
2018-12-31T17:12:18.721Z,95.82
2018-12-31T17:17:37.204Z,95.86
2018-12-31T17:28:26.194Z,96.01
2018-12-31T17:33:44.671Z,95.92
2018-12-31T17:39:03.370Z,96.10
2018-12-31T17:44:21.840Z,95.87
2018-12-31T17:55:10.953Z,95.95
2018-12-31T18:00:29.423Z,95.99
2018-12-31T18:05:47.980Z,95.89
2018-12-31T18:11:06.511Z,95.74
2018-12-31T18:16:24.988Z,95.69
2018-12-31T18:27:14.053Z,95.56
2018-12-31T18:32:32.528Z,95.64
2018-12-31T18:37:51.014Z,95.66
2018-12-31T18:43:09.561Z,95.82
2018-12-31T18:48:28.103Z,95.79
2018-12-31T18:53:46.724Z,96.02
2018-12-31T18:59:05.276Z,96.11
2018-12-31T19:04:23.814Z,96.02
2018-12-31T19:09:44.439Z,95.83
2018-12-31T19:15:03.421Z,95.38
2018-12-31T19:20:21.885Z,94.37
2018-12-31T19:25:40.364Z,94.35
2018-12-31T19:30:58.891Z,94.37
2018-12-31T19:36:17.441Z,93.78
2018-12-31T19:41:36.054Z,94.10
2018-12-31T19:46:54.539Z,93.84
2018-12-31T19:52:13.026Z,93.76
2018-12-31T19:57:31.580Z,93.75
2018-12-31T20:02:50.059Z,93.71
2018-12-31T20:08:08.538Z,93.79
2018-12-31T20:13:27.005Z,93.85
2018-12-31T20:18:47.234Z,93.43
2018-12-31T20:24:05.851Z,93.09
2018-12-31T20:29:24.379Z,92.95
2018-12-31T20:34:42.869Z,92.73
2018-12-31T20:40:01.431Z,92.38
2018-12-31T20:45:19.971Z,92.36
2018-12-31T20:50:40.312Z,92.29
2018-12-31T20:55:58.851Z,93.01
2018-12-31T21:01:17.622Z,92.95
2018-12-31T21:06:36.094Z,93.52
2018-12-31T21:11:54.693Z,93.54
2018-12-31T21:17:13.170Z,93.36
2018-12-31T21:28:04.568Z,93.17
2018-12-31T21:33:23.078Z,92.80
2018-12-31T21:38:41.880Z,93.06
2018-12-31T21:44:00.342Z,93.28
2018-12-31T21:49:18.807Z,93.38
2018-12-31T21:54:37.345Z,93.45
2018-12-31T21:59:55.825Z,93.68
2018-12-31T22:05:33.709Z,94.41
2018-12-31T22:10:52.270Z,95.32
2018-12-31T22:16:10.887Z,95.58
2018-12-31T22:21:29.412Z,96.07
2018-12-31T22:26:47.996Z,96.07
2018-12-31T22:32:06.751Z,96.08
2018-12-31T22:37:25.218Z,96.22
2018-12-31T22:48:16.236Z,95.74
2018-12-31T22:53:34.780Z,95.35
2018-12-31T22:58:53.327Z,95.51
2018-12-31T23:04:11.914Z,95.57
2018-12-31T23:09:30.412Z,95.93
2018-12-31T23:14:48.912Z,95.96
2018-12-31T23:20:49.081Z,96.21
2018-12-31T23:26:07.562Z,96.39
2018-12-31T23:36:58.317Z,95.60
2018-12-31T23:42:16.862Z,95.69
2018-12-31T23:47:35.345Z,95.48
2018-12-31T23:52:53.938Z,95.14
2018-12-31T23:58:12.481Z,94.43
